McCarran, Nevada
Current Conditions -  °F | °C
As of 10:55 AM on Thursday 30 Oct 2014 (Local Time) from KRNO Reporting Station
Overcast Overcast  
Wind Chill: 48°   Ceiling: 21000
Heat Index: 48°   Visibility: 10mi
Dew Point: 34°   Wind: 0mph
Humidity: 58%   Direction: NA
Pressure: 30.14"   Gusts: NA
Location:  39.5403°N, 119.672°W
Report Text: KRNO 301755Z 00000KT 10SM SCT150 OVC210 09/01 A3014 RMK AO2 SLP185 VIRGA T00890011 10089 20028 58003
Loading
Personal Weather Stations






























Interactive Weather Map New forecast layout! Learn more

10-Day Weather Forecast

Advertisements
Track Severe Weather on mobile